Time;durP1;ratioP1;P1;durP2;ratioP2;P2;SDS_P1;SDS_P2;PMS_P1;PMS_P2;Temp;Humidity;BMP_temperature;BMP_pressure;BME280_temperature;BME280_humidity;BME280_pressure;Samples;Min_cycle;Max_cycle;Signal;HPM_P1;HPM_P2
2023/10/05 00:03:18;;;;;;;11.80;5.68;;;16.70;70.10;;;;;;4989566;28;20030;-57
2023/10/05 00:05:44;;;;;;;8.23;5.40;;;16.60;70.00;;;;;;5038103;28;20068;-57
2023/10/05 00:08:10;;;;;;;8.77;5.38;;;16.60;69.80;;;;;;5051261;28;20388;-55
2023/10/05 00:10:35;;;;;;;7.75;5.78;;;16.60;69.70;;;;;;5050903;28;20017;-56
2023/10/05 00:13:07;;;;;;;7.10;5.53;;;16.50;69.60;;;;;;5051123;28;20021;-57
2023/10/05 00:15:36;;;;;;;6.35;4.55;;;16.50;69.60;;;;;;5051000;28;20029;-57
2023/10/05 00:18:04;;;;;;;7.75;5.25;;;16.50;69.40;;;;;;5050946;28;20021;-57
2023/10/05 00:20:38;;;;;;;7.03;5.18;;;16.60;69.40;;;;;;5050142;28;20476;-57
2023/10/05 00:23:08;;;;;;;8.00;4.90;;;16.50;69.20;;;;;;5050529;28;20032;-56
2023/10/05 00:25:34;;;;;;;9.75;5.40;;;16.50;69.00;;;;;;5050610;28;20029;-57
2023/10/05 00:28:05;;;;;;;7.25;5.30;;;16.50;68.90;;;;;;5050905;28;20074;-57
2023/10/05 00:30:31;;;;;;;7.55;4.88;;;16.50;68.70;;;;;;5051157;28;20063;-57
2023/10/05 00:32:59;;;;;;;7.25;5.03;;;16.50;68.80;;;;;;5050907;28;20033;-57
2023/10/05 00:35:28;;;;;;;8.98;4.53;;;16.50;68.60;;;;;;5050960;28;20414;-57
2023/10/05 00:37:57;;;;;;;6.70;4.78;;;16.50;68.40;;;;;;5049432;28;20503;-57
2023/10/05 00:40:42;;;;;;;6.57;4.97;;;16.50;68.30;;;;;;5051014;28;20025;-56
2023/10/05 00:43:21;;;;;;;9.52;6.20;;;16.50;68.20;;;;;;5050939;28;20032;-57
2023/10/05 00:45:47;;;;;;;7.53;4.43;;;16.50;68.20;;;;;;5050585;28;20032;-56
2023/10/05 00:49:00;;;;;;;8.10;4.95;;;16.50;68.10;;;;;;5049045;28;20049;-57
2023/10/05 00:51:14;;;;;;;6.18;4.72;;;16.50;67.90;;;;;;5048557;28;20034;-57
2023/10/05 00:53:47;;;;;;;7.03;4.47;;;16.50;67.90;;;;;;5050940;28;20025;-57
2023/10/05 00:56:15;;;;;;;6.68;4.40;;;16.50;68.60;;;;;;5052491;28;20036;-57
2023/10/05 00:58:42;;;;;;;7.50;4.70;;;16.40;67.90;;;;;;5054423;28;20029;-57
2023/10/05 01:01:15;;;;;;;8.73;4.72;;;16.40;67.70;;;;;;5054298;28;20151;-57
2023/10/05 01:06:49;;;;;;;5.93;4.43;;;16.40;67.70;;;;;;5054389;28;20040;-57
2023/10/05 01:14:52;;;;;;;7.40;4.63;;;16.30;67.70;;;;;;5054024;28;20403;-57
2023/10/05 01:17:28;;;;;;;6.60;4.68;;;16.30;67.60;;;;;;5054128;28;20119;-57
2023/10/05 01:19:58;;;;;;;5.68;4.30;;;16.30;67.60;;;;;;5054094;28;20155;-57
2023/10/05 01:22:38;;;;;;;6.93;4.22;;;16.30;67.70;;;;;;5053976;28;20044;-57
2023/10/05 01:25:05;;;;;;;7.68;4.63;;;16.20;67.60;;;;;;5053793;28;20040;-57
2023/10/05 01:27:37;;;;;;;7.93;4.55;;;16.20;67.60;;;;;;5054124;28;20029;-56
2023/10/05 01:30:04;;;;;;;6.82;4.47;;;16.20;67.50;;;;;;5053565;28;20036;-57
2023/10/05 01:32:31;;;;;;;6.40;4.70;;;16.20;67.40;;;;;;5053868;28;20533;-56
2023/10/05 01:34:57;;;;;;;7.53;4.82;;;16.20;67.40;;;;;;5053073;28;20033;-56
2023/10/05 01:37:23;;;;;;;8.50;4.90;;;16.20;67.30;;;;;;5053428;28;20029;-57
2023/10/05 01:39:52;;;;;;;5.78;4.50;;;16.20;67.30;;;;;;5053731;28;20408;-56
2023/10/05 01:42:19;;;;;;;6.57;4.38;;;16.20;67.30;;;;;;5053364;28;20043;-56
2023/10/05 01:44:48;;;;;;;9.00;4.55;;;16.20;67.20;;;;;;5053582;28;20036;-57
2023/10/05 01:47:17;;;;;;;6.45;4.25;;;16.20;67.20;;;;;;5053258;28;20028;-57
2023/10/05 01:49:46;;;;;;;6.95;4.53;;;16.20;67.20;;;;;;5053009;28;20447;-57
2023/10/05 01:52:16;;;;;;;6.75;4.30;;;16.20;67.20;;;;;;5053405;28;20484;-56
2023/10/05 01:54:43;;;;;;;7.28;4.57;;;16.20;67.20;;;;;;5053308;28;20550;-56
2023/10/05 01:57:09;;;;;;;8.07;4.82;;;16.10;67.20;;;;;;5053369;28;20025;-56
2023/10/05 01:59:37;;;;;;;6.78;4.45;;;16.10;67.20;;;;;;5053300;28;20025;-57
2023/10/05 02:02:15;;;;;;;5.70;4.10;;;16.00;67.30;;;;;;5052985;28;20029;-55
2023/10/05 02:04:48;;;;;;;7.47;4.50;;;16.00;67.30;;;;;;5052905;28;20036;-56
2023/10/05 02:07:18;;;;;;;7.45;4.00;;;15.90;67.30;;;;;;5053183;28;20033;-56
2023/10/05 02:09:44;;;;;;;7.82;4.70;;;15.90;67.50;;;;;;5052994;28;20345;-57
2023/10/05 02:12:09;;;;;;;5.57;4.10;;;15.90;67.50;;;;;;5052705;28;20576;-57
2023/10/05 02:14:41;;;;;;;6.50;4.38;;;15.80;67.60;;;;;;5052748;28;20028;-55
2023/10/05 02:17:08;;;;;;;5.30;4.00;;;15.80;67.70;;;;;;5052974;28;20403;-54
2023/10/05 02:19:36;;;;;;;5.78;4.45;;;15.70;67.70;;;;;;5052598;28;20040;-57
2023/10/05 02:22:04;;;;;;;6.95;4.95;;;15.70;67.80;;;;;;5053016;28;20032;-56
2023/10/05 02:24:30;;;;;;;5.43;4.10;;;15.70;67.80;;;;;;5052653;28;20056;-56
2023/10/05 02:29:26;;;;;;;6.72;4.15;;;15.70;67.90;;;;;;5052705;28;20117;-57
2023/10/05 02:37:19;;;;;;;7.22;4.47;;;15.70;67.90;;;;;;5052297;28;20051;-56
2023/10/05 02:39:45;;;;;;;6.97;4.60;;;15.70;67.90;;;;;;5052450;28;20060;-56
2023/10/05 02:42:16;;;;;;;8.13;4.57;;;15.70;67.80;;;;;;5052132;28;20067;-56
2023/10/05 02:44:45;;;;;;;7.90;4.97;;;15.70;67.70;;;;;;5052461;28;20029;-57
2023/10/05 02:47:12;;;;;;;5.68;4.45;;;15.70;67.60;;;;;;5052320;28;20146;-56
2023/10/05 02:49:43;;;;;;;7.68;4.53;;;15.70;67.70;;;;;;5051770;28;20084;-56
2023/10/05 02:52:13;;;;;;;5.03;3.83;;;15.70;67.60;;;;;;5052231;28;20441;-54
2023/10/05 02:54:48;;;;;;;4.90;3.92;;;15.60;67.70;;;;;;5052354;28;20033;-56
2023/10/05 02:57:16;;;;;;;6.43;4.25;;;15.60;67.80;;;;;;5052346;28;20024;-57
2023/10/05 02:59:43;;;;;;;7.30;4.45;;;15.50;67.80;;;;;;5051816;28;20032;-56
2023/10/05 03:02:14;;;;;;;5.95;4.22;;;15.50;67.90;;;;;;5051434;28;20029;-56
2023/10/05 03:04:57;;;;;;;5.05;3.95;;;15.50;67.80;;;;;;5051006;28;20447;-55
2023/10/05 03:07:26;;;;;;;5.88;3.88;;;15.50;67.80;;;;;;5051246;28;20039;-57
2023/10/05 03:09:58;;;;;;;6.80;4.38;;;15.40;67.80;;;;;;5051031;28;20047;-57
2023/10/05 03:12:24;;;;;;;4.20;3.63;;;15.30;67.90;;;;;;5051192;28;20461;-56
2023/10/05 03:14:50;;;;;;;6.53;4.55;;;15.30;68.20;;;;;;5051072;28;20060;-55
2023/10/05 03:17:20;;;;;;;7.22;4.47;;;15.30;68.20;;;;;;5051116;28;20033;-56
2023/10/05 03:19:46;;;;;;;6.97;4.13;;;15.20;68.30;;;;;;5050656;28;20032;-56
2023/10/05 03:22:12;;;;;;;6.07;4.10;;;15.20;68.30;;;;;;5050644;28;20029;-54
2023/10/05 03:24:47;;;;;;;7.15;4.18;;;15.20;68.30;;;;;;5050974;28;20025;-55
2023/10/05 03:27:14;;;;;;;6.70;4.50;;;15.10;68.40;;;;;;5051022;28;20033;-55
2023/10/05 03:29:45;;;;;;;6.72;4.57;;;15.10;68.40;;;;;;5050784;28;20056;-56
2023/10/05 03:34:37;;;;;;;6.32;4.60;;;15.00;68.40;;;;;;5050787;28;20029;-56
2023/10/05 03:37:12;;;;;;;6.50;4.28;;;15.00;68.50;;;;;;5050535;28;20025;-56
2023/10/05 03:42:15;;;;;;;5.47;4.22;;;14.90;68.70;;;;;;5050916;28;20036;-56
2023/10/05 03:44:40;;;;;;;7.55;5.03;;;14.90;68.80;;;;;;5050723;28;20037;-56
2023/10/05 03:47:06;;;;;;;5.90;4.57;;;14.80;68.90;;;;;;5050380;28;20496;-56
2023/10/05 03:49:33;;;;;;;5.80;4.63;;;14.80;68.90;;;;;;5050111;28;20211;-56
2023/10/05 03:51:58;;;;;;;5.32;4.72;;;14.80;69.10;;;;;;5050745;28;20032;-57
2023/10/05 03:54:27;;;;;;;7.30;4.40;;;14.80;69.20;;;;;;5048646;28;20021;-57
2023/10/05 03:59:51;;;;;;;6.13;4.53;;;14.90;69.30;;;;;;5014686;28;20041;-55
2023/10/05 04:02:18;;;;;;;6.43;4.85;;;14.80;69.30;;;;;;5049099;28;20534;-56
2023/10/05 04:04:44;;;;;;;6.70;4.80;;;14.90;69.10;;;;;;5048957;28;20439;-56
2023/10/05 04:07:09;;;;;;;6.70;4.35;;;14.90;69.20;;;;;;5049508;28;20419;-56
2023/10/05 04:09:36;;;;;;;5.97;4.80;;;14.90;69.10;;;;;;5049742;28;20029;-54
2023/10/05 04:12:04;;;;;;;6.90;4.93;;;14.90;69.00;;;;;;5050636;28;20032;-56
2023/10/05 04:14:32;;;;;;;7.35;4.90;;;15.00;69.00;;;;;;5050434;28;20021;-57
2023/10/05 04:17:07;;;;;;;16.38;5.15;;;15.00;69.00;;;;;;5050475;28;20021;-56
2023/10/05 04:19:33;;;;;;;6.07;4.78;;;15.00;69.00;;;;;;5050420;28;20052;-56
2023/10/05 04:21:59;;;;;;;6.70;4.75;;;15.00;68.90;;;;;;5050273;28;20065;-57
2023/10/05 04:24:26;;;;;;;6.65;4.35;;;14.90;68.90;;;;;;5050278;28;20421;-57
2023/10/05 04:26:53;;;;;;;5.82;4.45;;;14.90;69.00;;;;;;5050163;28;20032;-55
2023/10/05 04:29:23;;;;;;;6.80;4.50;;;14.80;69.00;;;;;;5050196;28;20036;-56
2023/10/05 04:31:49;;;;;;;8.10;5.13;;;14.80;69.20;;;;;;5052451;28;20035;-60
2023/10/05 04:34:18;;;;;;;6.32;4.82;;;14.80;69.30;;;;;;5054067;28;20029;-56
2023/10/05 04:36:46;;;;;;;6.15;4.50;;;14.70;69.40;;;;;;5054056;28;20048;-57
2023/10/05 04:39:13;;;;;;;8.68;5.10;;;14.70;69.70;;;;;;5054125;28;20039;-57
2023/10/05 04:41:49;;;;;;;5.82;5.03;;;14.70;69.80;;;;;;5054054;28;20032;-57
2023/10/05 04:44:15;;;;;;;7.50;4.90;;;14.70;70.00;;;;;;5054003;28;20051;-57
2023/10/05 04:46:48;;;;;;;8.48;5.35;;;14.60;70.10;;;;;;5053895;28;20052;-57
2023/10/05 04:49:14;;;;;;;6.28;5.00;;;14.70;70.10;;;;;;5053494;28;20044;-57
2023/10/05 04:51:41;;;;;;;10.93;4.88;;;14.70;70.10;;;;;;5053450;28;20021;-57
2023/10/05 04:54:12;;;;;;;6.75;4.75;;;14.70;70.10;;;;;;5047875;28;20419;-57
2023/10/05 05:07:02;;;;;;;6.97;5.00;;;14.80;70.20;;;;;;5051707;28;20075;-55
2023/10/05 05:09:34;;;;;;;8.15;4.95;;;14.80;70.10;;;;;;5051701;28;20041;-56
2023/10/05 05:12:05;;;;;;;7.70;5.22;;;14.80;70.10;;;;;;5052002;28;20400;-56
2023/10/05 05:14:35;;;;;;;10.82;5.70;;;14.80;70.10;;;;;;5051701;28;20098;-55
2023/10/05 05:17:02;;;;;;;7.50;5.20;;;14.90;70.20;;;;;;5051822;28;20029;-54
2023/10/05 05:19:30;;;;;;;8.00;5.18;;;14.90;70.10;;;;;;5051864;28;20090;-56
2023/10/05 05:22:08;;;;;;;7.72;5.30;;;14.90;70.10;;;;;;5052474;28;20040;-55
2023/10/05 05:24:35;;;;;;;8.90;6.13;;;15.00;70.20;;;;;;5052618;28;20189;-53
2023/10/05 05:27:04;;;;;;;8.80;5.55;;;15.00;70.20;;;;;;5052191;28;20515;-55
2023/10/05 05:29:33;;;;;;;8.57;5.60;;;15.00;70.20;;;;;;5052387;28;20154;-55
2023/10/05 05:32:11;;;;;;;6.38;5.00;;;15.00;70.20;;;;;;5052802;28;20385;-55
2023/10/05 05:34:37;;;;;;;8.65;5.78;;;15.10;70.20;;;;;;5052845;28;20021;-57
2023/10/05 05:37:04;;;;;;;7.18;5.45;;;15.10;70.20;;;;;;5052675;28;20366;-56
2023/10/05 05:39:33;;;;;;;7.53;5.32;;;15.20;70.20;;;;;;5052851;28;20055;-56
2023/10/05 05:42:06;;;;;;;6.78;5.32;;;15.20;70.10;;;;;;5052441;28;20546;-56
2023/10/05 05:44:34;;;;;;;6.35;5.00;;;15.20;70.10;;;;;;5052759;28;20036;-56
2023/10/05 05:47:10;;;;;;;7.78;5.38;;;15.30;70.10;;;;;;5052787;28;20594;-55
2023/10/05 05:49:41;;;;;;;8.43;4.68;;;15.30;70.00;;;;;;5052824;28;20052;-56
2023/10/05 05:52:12;;;;;;;7.80;4.93;;;15.40;70.10;;;;;;5052003;28;20606;-56
2023/10/05 05:54:38;;;;;;;10.37;5.67;;;15.40;70.10;;;;;;5051055;28;20099;-56
2023/10/05 05:57:07;;;;;;;7.78;5.90;;;15.50;70.10;;;;;;5051467;28;20473;-55
2023/10/05 05:59:38;;;;;;;7.55;5.20;;;15.60;70.00;;;;;;5051887;28;20033;-57
2023/10/05 06:02:07;;;;;;;8.77;5.57;;;15.60;70.60;;;;;;5051870;28;20472;-56
2023/10/05 06:04:42;;;;;;;6.45;5.13;;;15.70;69.90;;;;;;5050320;28;20088;-56
2023/10/05 06:07:13;;;;;;;5.57;4.25;;;15.80;69.70;;;;;;5052248;28;20528;-56
2023/10/05 06:09:39;;;;;;;7.72;4.97;;;15.80;69.70;;;;;;5052072;28;20423;-56
2023/10/05 06:12:05;;;;;;;7.68;5.10;;;15.90;69.60;;;;;;5051606;28;20104;-55
2023/10/05 06:14:34;;;;;;;6.97;5.43;;;16.00;69.40;;;;;;5051527;28;20541;-56
2023/10/05 06:17:00;;;;;;;6.50;4.43;;;16.10;69.40;;;;;;5051186;28;20036;-57
2023/10/05 06:19:26;;;;;;;6.75;5.28;;;16.10;69.20;;;;;;5051536;28;20032;-56
2023/10/05 06:21:52;;;;;;;6.57;5.50;;;16.20;69.10;;;;;;5050475;28;20056;-57
2023/10/05 06:24:18;;;;;;;6.55;4.40;;;16.20;69.00;;;;;;5051232;28;20110;-57
2023/10/05 06:26:45;;;;;;;7.38;4.85;;;16.30;68.90;;;;;;5051313;28;20032;-56
2023/10/05 06:29:11;;;;;;;6.60;4.65;;;16.40;68.90;;;;;;5050499;28;20056;-56
2023/10/05 06:31:37;;;;;;;6.90;5.15;;;16.50;68.80;;;;;;5049796;28;20281;-56
2023/10/05 06:34:09;;;;;;;6.55;4.53;;;16.50;68.60;;;;;;5050017;28;20126;-57
2023/10/05 06:36:39;;;;;;;6.60;4.55;;;16.60;68.70;;;;;;5050279;28;20025;-57
2023/10/05 06:39:14;;;;;;;5.93;4.30;;;16.60;68.80;;;;;;5050742;28;20027;-58
2023/10/05 06:41:43;;;;;;;7.80;4.60;;;16.70;68.80;;;;;;5050253;28;20021;-56
2023/10/05 06:44:10;;;;;;;7.47;4.53;;;16.70;68.90;;;;;;5049961;28;20487;-56
2023/10/05 06:46:42;;;;;;;8.20;4.88;;;16.80;68.90;;;;;;5051144;28;20040;-58
2023/10/05 06:49:09;;;;;;;7.03;4.68;;;16.80;68.60;;;;;;5050819;28;20045;-56
2023/10/05 06:51:39;;;;;;;6.95;4.85;;;16.90;68.60;;;;;;5051341;28;20503;-56
2023/10/05 06:54:05;;;;;;;6.15;4.18;;;16.90;68.50;;;;;;5050476;28;20447;-58
2023/10/05 06:56:30;;;;;;;5.00;3.90;;;17.00;68.30;;;;;;5051814;28;20032;-57
2023/10/05 06:58:56;;;;;;;7.65;6.00;;;17.00;68.30;;;;;;5051228;28;20242;-56
2023/10/05 07:01:21;;;;;;;10.50;6.82;;;17.00;68.20;;;;;;5051247;28;20028;-56
2023/10/05 07:03:55;;;;;;;7.43;4.88;;;17.10;68.30;;;;;;5051089;28;20365;-55
2023/10/05 07:06:24;;;;;;;7.18;4.63;;;17.10;68.20;;;;;;5051571;28;20025;-55
2023/10/05 07:08:52;;;;;;;4.78;3.63;;;17.10;68.20;;;;;;5051049;28;20039;-56
2023/10/05 07:11:19;;;;;;;7.63;4.57;;;17.20;68.20;;;;;;5051297;28;20100;-56
2023/10/05 07:13:46;;;;;;;7.82;4.93;;;17.20;68.30;;;;;;5051206;28;20025;-56
2023/10/05 07:16:12;;;;;;;6.57;4.57;;;17.20;68.40;;;;;;5051211;28;20431;-56
2023/10/05 07:18:39;;;;;;;7.22;4.30;;;17.30;68.50;;;;;;5051277;28;20025;-57
2023/10/05 07:21:08;;;;;;;5.78;4.50;;;17.30;68.40;;;;;;5048756;28;20037;-55
2023/10/05 07:23:37;;;;;;;5.63;4.32;;;17.30;68.20;;;;;;5046745;28;20063;-56
2023/10/05 07:26:07;;;;;;;8.48;4.70;;;17.30;68.10;;;;;;5041887;28;20025;-56
2023/10/05 07:28:37;;;;;;;8.90;4.65;;;17.40;68.00;;;;;;5036666;28;20437;-55
2023/10/05 07:31:03;;;;;;;4.82;4.32;;;17.40;68.00;;;;;;5036659;28;20036;-56
2023/10/05 07:33:30;;;;;;;8.18;4.70;;;17.40;67.80;;;;;;5034040;28;20373;-51
2023/10/05 07:35:56;;;;;;;6.60;4.18;;;17.40;67.60;;;;;;5051360;28;23823;-54
2023/10/05 07:38:26;;;;;;;5.32;4.28;;;17.40;67.80;;;;;;5072248;22;20045;-83
2023/10/05 07:40:55;;;;;;;5.80;4.28;;;17.40;68.00;;;;;;5045360;28;20025;-83
2023/10/05 07:43:34;;;;;;;7.22;4.38;;;17.40;68.00;;;;;;5051478;28;20078;-85
2023/10/05 07:46:12;;;;;;;5.22;4.15;;;17.40;68.10;;;;;;5049371;28;20075;-85
2023/10/05 07:48:54;;;;;;;6.63;4.75;;;17.40;68.10;;;;;;5052606;28;20040;-88
2023/10/05 07:51:19;;;;;;;7.35;4.93;;;17.40;68.10;;;;;;5051963;28;20021;-84
2023/10/05 07:53:45;;;;;;;6.90;5.32;;;17.30;68.30;;;;;;5038579;28;20021;-84
2023/10/05 07:56:13;;;;;;;7.97;4.82;;;17.30;68.50;;;;;;5044011;28;20067;-85
2023/10/05 07:58:44;;;;;;;6.15;4.40;;;17.40;68.70;;;;;;5051379;28;20037;-86
2023/10/05 08:01:49;;;;;;;6.82;4.80;;;17.40;68.60;;;;;;5039654;28;20040;-85
2023/10/05 08:07:56;;;;;;;;;;;;;;;;;;;;;
2023/10/05 08:13:34;;;;;;;;;;;17.40;68.80;;;;;;5045188;28;20116;-85
2023/10/05 08:16:07;;;;;;;5.90;3.90;;;17.30;68.50;;;;;;5050768;28;19979;-85
2023/10/05 08:18:43;;;;;;;7.93;4.50;;;17.30;68.10;;;;;;5055995;28;20459;-86
2023/10/05 08:21:11;;;;;;;6.18;3.97;;;17.30;67.50;;;;;;5056463;28;20022;-87
2023/10/05 08:23:37;;;;;;;6.65;4.43;;;17.40;67.10;;;;;;5055402;28;20108;-86
2023/10/05 08:26:03;;;;;;;6.32;4.50;;;17.40;67.10;;;;;;5050262;28;20079;-85
2023/10/05 08:28:31;;;;;;;6.00;4.25;;;17.40;66.70;;;;;;5049290;28;20029;-86
2023/10/05 08:31:06;;;;;;;5.47;4.28;;;17.40;66.30;;;;;;5055414;28;20104;-85
2023/10/05 08:33:55;;;;;;;6.47;4.10;;;17.40;66.00;;;;;;5047286;28;20025;-84
2023/10/05 08:36:22;;;;;;;7.18;4.10;;;17.40;65.70;;;;;;5053789;28;20400;-85
2023/10/05 08:38:48;;;;;;;5.97;4.55;;;17.40;65.80;;;;;;5050639;28;20051;-85
2023/10/05 08:41:39;;;;;;;6.13;4.30;;;17.50;65.90;;;;;;5050247;28;20029;-86
2023/10/05 08:44:20;;;;;;;6.97;4.38;;;17.50;65.70;;;;;;5050173;28;20049;-85
2023/10/05 08:46:46;;;;;;;7.95;4.55;;;17.60;65.30;;;;;;5056808;28;20029;-86
2023/10/05 08:49:15;;;;;;;7.40;4.28;;;17.60;65.10;;;;;;5053341;28;20029;-84
2023/10/05 08:51:41;;;;;;;7.07;4.38;;;17.60;64.70;;;;;;5053194;28;20069;-84
2023/10/05 08:54:11;;;;;;;6.32;3.95;;;17.60;64.60;;;;;;5052493;28;20505;-83
2023/10/05 08:56:45;;;;;;;9.02;4.45;;;17.70;64.50;;;;;;5044238;28;20033;-84
2023/10/05 08:59:14;;;;;;;6.18;4.30;;;17.70;64.20;;;;;;5064783;28;20052;-85
2023/10/05 09:01:46;;;;;;;8.00;4.20;;;17.70;64.00;;;;;;5051263;28;20037;-86
2023/10/05 09:07:08;;;;;;;6.20;4.13;;;17.80;63.10;;;;;;5060104;28;20123;-85
2023/10/05 09:09:39;;;;;;;7.50;4.55;;;17.80;63.00;;;;;;5055039;28;20585;-86
2023/10/05 09:12:18;;;;;;;6.28;3.97;;;17.80;63.00;;;;;;5058103;28;20025;-86
2023/10/05 09:14:46;;;;;;;5.72;4.03;;;17.90;63.20;;;;;;5051469;28;20025;-86
2023/10/05 09:17:13;;;;;;;6.13;4.13;;;17.90;63.30;;;;;;5052405;28;20028;-86
2023/10/05 09:19:40;;;;;;;6.22;4.45;;;17.90;63.50;;;;;;5051019;28;20115;-85
2023/10/05 09:24:34;;;;;;;7.45;4.90;;;18.00;63.70;;;;;;5045573;28;20073;-86
2023/10/05 09:27:14;;;;;;;6.97;4.30;;;18.00;63.50;;;;;;5050433;28;20024;-87
2023/10/05 09:29:41;;;;;;;5.35;4.07;;;18.10;63.20;;;;;;5050267;28;20432;-86
2023/10/05 09:32:30;;;;;;;6.88;4.20;;;18.10;62.40;;;;;;5053670;28;20030;-88
2023/10/05 09:34:57;;;;;;;6.65;4.03;;;18.10;62.50;;;;;;5058546;28;20546;-86
2023/10/05 09:37:27;;;;;;;8.20;4.13;;;18.10;62.70;;;;;;5051575;28;20025;-86
2023/10/05 09:39:59;;;;;;;7.60;4.10;;;18.20;62.40;;;;;;5050858;28;20033;-87
2023/10/05 09:42:26;;;;;;;7.07;4.57;;;18.20;61.80;;;;;;5046650;28;20124;-87
2023/10/05 09:44:53;;;;;;;6.53;3.85;;;18.30;61.80;;;;;;5055677;28;20036;-87
2023/10/05 09:47:27;;;;;;;6.95;4.15;;;18.30;61.70;;;;;;5044668;28;20025;-85
2023/10/05 09:49:54;;;;;;;6.65;3.90;;;18.40;61.50;;;;;;5040648;28;20036;-84
2023/10/05 09:52:24;;;;;;;5.80;3.88;;;18.40;60.80;;;;;;5037711;28;20078;-85
2023/10/05 09:54:51;;;;;;;8.63;4.53;;;18.40;60.60;;;;;;5046807;28;20025;-85
2023/10/05 09:57:18;;;;;;;8.10;4.43;;;18.40;60.60;;;;;;5046567;28;20120;-84
2023/10/05 09:59:48;;;;;;;7.80;4.93;;;18.50;60.80;;;;;;5046006;28;20025;-86
2023/10/05 10:02:16;;;;;;;7.53;4.10;;;18.50;60.80;;;;;;5046580;28;20115;-87
2023/10/05 10:04:46;;;;;;;5.93;4.43;;;18.50;60.80;;;;;;5054562;28;20036;-86
2023/10/05 10:07:22;;;;;;;6.93;4.78;;;18.60;61.10;;;;;;5067059;28;20039;-87
2023/10/05 10:09:53;;;;;;;6.18;4.22;;;18.60;61.10;;;;;;5058441;28;20034;-86
2023/10/05 10:12:25;;;;;;;6.00;4.13;;;18.70;61.30;;;;;;5048865;28;20372;-86
2023/10/05 10:14:53;;;;;;;6.93;4.18;;;18.70;61.30;;;;;;5054628;28;20116;-85
2023/10/05 10:17:27;;;;;;;5.30;3.95;;;18.80;61.30;;;;;;5048686;28;20111;-85
2023/10/05 10:20:34;;;;;;;5.72;4.03;;;18.80;60.90;;;;;;5049566;28;20025;-85
2023/10/05 10:23:22;;;;;;;7.03;4.22;;;18.90;60.60;;;;;;5050009;28;20554;-86
2023/10/05 10:25:50;;;;;;;7.03;4.07;;;18.90;60.70;;;;;;5067101;28;20033;-88
2023/10/05 10:28:24;;;;;;;6.68;4.30;;;18.90;60.60;;;;;;5048085;28;20039;-86
2023/10/05 10:31:17;;;;;;;6.68;4.97;;;18.90;60.40;;;;;;5068013;28;20485;-86
2023/10/05 10:33:43;;;;;;;7.10;4.65;;;19.00;60.40;;;;;;5046617;28;20029;-86
2023/10/05 10:36:18;;;;;;;7.40;4.65;;;19.00;60.30;;;;;;5053253;28;20081;-86
2023/10/05 10:38:51;;;;;;;10.13;4.45;;;19.00;59.80;;;;;;5055005;28;20366;-86
2023/10/05 10:41:23;;;;;;;7.80;4.47;;;19.10;59.80;;;;;;5054101;28;20052;-86
2023/10/05 10:43:52;;;;;;;8.95;4.30;;;19.10;59.90;;;;;;5045308;28;20033;-86
2023/10/05 10:46:34;;;;;;;7.68;4.35;;;19.10;59.90;;;;;;5050830;28;20065;-86
2023/10/05 10:49:00;;;;;;;7.43;4.57;;;19.20;59.50;;;;;;5065182;28;20025;-84
2023/10/05 10:51:36;;;;;;;5.75;3.80;;;19.20;59.20;;;;;;5058372;28;20089;-86
2023/10/05 10:54:14;;;;;;;5.95;4.32;;;19.20;58.90;;;;;;5062619;28;20072;-86
2023/10/05 10:56:44;;;;;;;6.63;4.55;;;19.20;58.80;;;;;;5067894;28;20025;-86
2023/10/05 10:59:11;;;;;;;7.45;4.25;;;19.20;59.30;;;;;;5068943;28;20040;-85
2023/10/05 11:01:42;;;;;;;6.68;4.63;;;19.20;59.40;;;;;;5063198;28;20029;-85
2023/10/05 11:04:23;;;;;;;;;;;19.20;59.80;;;;;;5063840;28;20028;-85
2023/10/05 11:06:51;;;;;;;5.88;4.05;;;19.10;60.10;;;;;;5066326;28;20279;-86
2023/10/05 11:09:19;;;;;;;6.60;4.43;;;19.20;60.70;;;;;;5059609;28;20033;-87
2023/10/05 11:11:44;;;;;;;5.55;4.10;;;19.20;61.10;;;;;;5047303;28;20021;-86
2023/10/05 11:14:21;;;;;;;9.43;4.90;;;19.20;61.00;;;;;;5050980;28;20096;-86
2023/10/05 11:16:59;;;;;;;8.15;4.30;;;19.20;61.10;;;;;;5048077;28;20053;-86
2023/10/05 11:19:36;;;;;;;6.63;4.38;;;19.20;61.60;;;;;;5047225;28;20033;-86
2023/10/05 11:22:07;;;;;;;7.03;4.20;;;19.30;61.40;;;;;;5064997;28;20292;-86
2023/10/05 11:24:39;;;;;;;8.10;4.90;;;19.20;61.10;;;;;;5051576;28;20037;-86
2023/10/05 11:27:15;;;;;;;8.15;4.88;;;19.30;61.10;;;;;;5048361;28;20119;-86
2023/10/05 11:29:48;;;;;;;6.60;3.90;;;19.30;61.10;;;;;;5046812;28;20033;-86
2023/10/05 11:32:20;;;;;;;8.15;4.30;;;19.20;61.10;;;;;;5047262;28;20029;-88
2023/10/05 11:34:46;;;;;;;7.55;4.63;;;19.30;61.30;;;;;;5060276;28;20021;-86
2023/10/05 11:37:16;;;;;;;5.95;4.20;;;19.30;61.10;;;;;;5057394;28;20024;-86
2023/10/05 11:39:49;;;;;;;7.07;4.85;;;19.30;60.40;;;;;;5050851;28;20045;-87
2023/10/05 11:42:24;;;;;;;7.28;4.60;;;19.20;60.60;;;;;;5046665;28;20278;-87
2023/10/05 11:45:24;;;;;;;6.40;4.75;;;19.30;60.60;;;;;;5057030;28;20540;-89
2023/10/05 11:47:53;;;;;;;6.80;4.68;;;19.30;60.40;;;;;;5046740;28;20025;-88
2023/10/05 11:50:35;;;;;;;6.03;4.22;;;19.30;60.40;;;;;;5040560;28;20408;-88
2023/10/05 11:53:11;;;;;;;;;;;19.30;59.70;;;;;;5043641;28;20594;-88
2023/10/05 11:55:39;;;;;;;6.93;4.70;;;19.30;59.70;;;;;;5044990;28;19916;-88
2023/10/05 11:58:41;;;;;;;6.03;3.95;;;19.40;60.40;;;;;;5055571;28;20037;-90
2023/10/05 12:04:31;;;;;;;5.95;3.97;;;19.60;60.50;;;;;;5026135;23;20048;-55
2023/10/05 12:06:59;;;;;;;6.28;4.57;;;19.60;60.00;;;;;;5035387;28;20452;-55
2023/10/05 12:09:32;;;;;;;7.88;4.90;;;19.70;59.10;;;;;;5035531;28;20044;-54
2023/10/05 12:11:59;;;;;;;8.45;4.53;;;19.80;58.10;;;;;;5035992;28;20029;-57
2023/10/05 12:14:25;;;;;;;8.50;4.05;;;19.80;57.40;;;;;;5037439;28;20393;-56
2023/10/05 12:16:52;;;;;;;8.13;4.35;;;19.80;56.90;;;;;;5044088;28;20029;-57
2023/10/05 12:19:27;;;;;;;8.05;4.38;;;19.80;56.60;;;;;;5039186;28;20026;-56
2023/10/05 12:21:55;;;;;;;8.75;4.30;;;19.80;56.40;;;;;;5038253;28;20029;-57
2023/10/05 12:24:21;;;;;;;10.93;5.00;;;19.80;56.20;;;;;;5040983;28;20111;-55
2023/10/05 12:26:47;;;;;;;9.15;4.82;;;19.80;56.10;;;;;;5042391;28;20018;-56
2023/10/05 12:29:13;;;;;;;8.25;5.13;;;19.90;56.00;;;;;;5041227;28;20040;-57
2023/10/05 12:31:44;;;;;;;8.55;4.60;;;19.90;56.00;;;;;;5044288;28;20484;-55
2023/10/05 12:34:14;;;;;;;8.93;4.60;;;19.90;55.90;;;;;;5033275;28;20465;-54
2023/10/05 12:36:51;;;;;;;7.47;4.60;;;19.90;55.90;;;;;;5032806;28;20160;-56
2023/10/05 12:39:20;;;;;;;8.77;4.78;;;19.90;55.80;;;;;;5028778;28;20032;-55
2023/10/05 12:41:50;;;;;;;7.55;4.60;;;20.00;55.90;;;;;;5034828;28;20476;-52
2023/10/05 12:44:17;;;;;;;7.20;4.37;;;20.00;55.70;;;;;;5034681;28;20021;-54
2023/10/05 12:46:45;;;;;;;7.07;4.20;;;20.00;55.60;;;;;;5041916;28;20029;-57
2023/10/05 12:49:12;;;;;;;10.13;4.32;;;20.00;55.40;;;;;;5039282;28;20072;-57
2023/10/05 12:51:38;;;;;;;7.78;4.45;;;20.00;55.10;;;;;;5046449;28;20025;-52
2023/10/05 12:54:09;;;;;;;7.57;4.40;;;20.00;55.20;;;;;;5055801;28;20055;-56
2023/10/05 12:56:38;;;;;;;9.07;4.32;;;20.00;55.10;;;;;;5039281;28;20064;-54
2023/10/05 12:59:07;;;;;;;6.72;4.10;;;20.00;54.80;;;;;;5036644;28;20041;-56
2023/10/05 13:01:35;;;;;;;7.80;4.38;;;20.10;54.70;;;;;;5042052;28;20524;-58
2023/10/05 13:04:05;;;;;;;6.40;4.22;;;20.00;54.50;;;;;;5041653;28;20144;-56
2023/10/05 13:06:32;;;;;;;6.80;4.20;;;20.00;54.50;;;;;;5038465;28;20025;-54
2023/10/05 13:09:01;;;;;;;7.35;4.40;;;20.10;54.60;;;;;;5047288;28;20102;-59
2023/10/05 13:11:29;;;;;;;8.15;4.53;;;20.10;54.60;;;;;;5047850;28;20028;-57
2023/10/05 13:13:55;;;;;;;7.70;4.35;;;20.10;54.40;;;;;;5050761;28;20388;-57
2023/10/05 13:16:21;;;;;;;8.57;4.45;;;20.10;54.10;;;;;;5051159;28;20060;-58
2023/10/05 13:18:50;;;;;;;6.82;4.22;;;20.10;53.90;;;;;;5046534;28;20033;-57
2023/10/05 13:21:16;;;;;;;8.98;4.70;;;20.10;53.80;;;;;;5044862;28;20031;-54
2023/10/05 13:23:42;;;;;;;8.95;4.32;;;20.10;53.80;;;;;;5038743;28;20083;-56
2023/10/05 13:26:08;;;;;;;6.97;4.50;;;20.10;53.70;;;;;;5040787;28;20025;-56
2023/10/05 13:28:34;;;;;;;6.63;4.25;;;20.00;53.90;;;;;;5045522;28;20025;-56
2023/10/05 13:31:05;;;;;;;6.85;4.20;;;20.00;53.90;;;;;;5044244;28;20021;-54
2023/10/05 13:33:35;;;;;;;7.50;4.80;;;20.00;53.90;;;;;;5038297;28;20047;-56
2023/10/05 13:36:07;;;;;;;9.63;5.28;;;20.00;53.70;;;;;;5040640;28;20485;-58
2023/10/05 13:38:36;;;;;;;7.53;4.82;;;20.00;53.60;;;;;;5041945;28;20075;-54
2023/10/05 13:43:31;;;;;;;8.15;4.63;;;19.90;54.00;;;;;;5040678;28;20128;-55
2023/10/05 13:46:07;;;;;;;6.03;4.13;;;19.80;53.70;;;;;;5043664;28;20032;-55
2023/10/05 13:48:35;;;;;;;7.45;4.63;;;19.80;53.50;;;;;;5033302;28;20111;-56
2023/10/05 13:51:03;;;;;;;7.15;4.40;;;19.80;53.90;;;;;;5036380;28;20105;-56
2023/10/05 13:53:29;;;;;;;6.95;4.45;;;19.80;54.40;;;;;;5043589;28;20037;-56
2023/10/05 13:55:54;;;;;;;8.25;4.97;;;19.80;54.80;;;;;;5045085;28;20358;-55
2023/10/05 13:58:20;;;;;;;7.95;4.72;;;19.70;54.60;;;;;;5040394;28;20087;-54